Time;durP1;ratioP1;P1;durP2;ratioP2;P2;SDS_P1;SDS_P2;PMS_P1;PMS_P2;Temp;Humidity;BMP_temperature;BMP_pressure;BME280_temperature;BME280_humidity;BME280_pressure;Samples;Min_cycle;Max_cycle;Signal;HPM_P1;HPM_P2
2022/05/13 00:01:17;;;;;;;2.80;1.05;;;;;;;18.24;40.84;101764.19;5071189;28;20048;-65
2022/05/13 00:03:45;;;;;;;4.72;1.80;;;;;;;18.23;40.92;101775.31;5081980;28;20067;-65
2022/05/13 00:06:13;;;;;;;4.18;1.88;;;;;;;18.21;40.97;101772.84;5075786;28;20040;-65
2022/05/13 00:08:42;;;;;;;8.07;1.77;;;;;;;18.17;41.07;101763.53;5080079;28;20071;-65
2022/05/13 00:11:10;;;;;;;4.30;1.50;;;;;;;18.16;41.16;101767.34;5081282;28;20076;-65
2022/05/13 00:13:39;;;;;;;4.05;1.65;;;;;;;18.14;41.11;101761.31;5072547;28;20076;-64
2022/05/13 00:16:07;;;;;;;6.05;1.42;;;;;;;18.12;41.10;101766.19;5081438;28;20075;-64
2022/05/13 00:18:35;;;;;;;6.53;2.25;;;;;;;18.09;41.20;101763.97;5080998;28;20098;-65
2022/05/13 00:21:04;;;;;;;6.63;1.70;;;;;;;18.03;41.10;101759.50;5075619;28;20528;-65
2022/05/13 00:23:32;;;;;;;4.80;1.60;;;;;;;18.01;41.31;101757.03;5079695;28;20052;-64
2022/05/13 00:26:01;;;;;;;8.80;1.98;;;;;;;17.99;41.51;101753.75;5076250;28;20048;-64
2022/05/13 00:28:29;;;;;;;3.30;1.35;;;;;;;18.00;41.38;101766.28;5072586;28;20102;-63
2022/05/13 00:30:59;;;;;;;5.07;2.10;;;;;;;17.98;41.42;101762.97;5073880;28;20051;-65
2022/05/13 00:33:27;;;;;;;6.85;1.52;;;;;;;17.94;41.45;101761.84;5071560;28;20055;-64
2022/05/13 00:35:55;;;;;;;5.30;1.52;;;;;;;17.96;41.57;101767.03;5083094;28;20113;-64
2022/05/13 00:38:23;;;;;;;6.18;1.92;;;;;;;17.93;41.48;101768.34;5080587;28;20053;-64
2022/05/13 00:40:51;;;;;;;5.63;1.67;;;;;;;17.91;41.37;101759.59;5066543;28;20071;-64
2022/05/13 00:43:49;;;;;;;4.13;1.35;;;;;;;17.88;41.41;101760.94;5078568;28;20056;-64
2022/05/13 00:46:17;;;;;;;8.30;1.80;;;;;;;17.88;41.53;101760.09;5081694;28;20298;-65
2022/05/13 00:48:47;;;;;;;6.00;1.60;;;;;;;17.87;41.30;101763.91;5078236;28;20116;-64
2022/05/13 00:51:19;;;;;;;9.25;2.08;;;;;;;17.84;41.37;101767.09;5078156;28;20064;-63
2022/05/13 00:53:48;;;;;;;7.05;2.30;;;;;;;17.83;41.37;101766.28;5063822;28;20053;-64
2022/05/13 00:56:16;;;;;;;5.82;1.98;;;;;;;17.81;41.42;101760.28;5074428;28;20108;-64
2022/05/13 00:58:51;;;;;;;5.50;2.25;;;;;;;17.77;41.29;101761.84;5077981;28;20072;-64
2022/05/13 01:01:19;;;;;;;5.80;1.55;;;;;;;17.77;41.18;101755.56;5069063;28;20582;-64
2022/05/13 01:03:49;;;;;;;7.25;1.60;;;;;;;17.71;41.21;101751.94;5068679;28;20518;-64
2022/05/13 01:06:21;;;;;;;5.88;1.98;;;;;;;17.72;41.08;101766.38;5067859;28;20402;-64
2022/05/13 01:08:49;;;;;;;5.93;1.80;;;;;;;17.69;40.99;101761.44;5075420;28;20402;-64
2022/05/13 01:11:21;;;;;;;8.05;2.10;;;;;;;17.62;41.07;101744.41;5081931;28;20044;-64
2022/05/13 01:13:53;;;;;;;6.68;1.67;;;;;;;17.64;41.10;101758.59;5075625;28;20532;-63
2022/05/13 01:16:21;;;;;;;4.38;1.92;;;;;;;17.62;41.01;101764.28;5081771;28;20040;-64
2022/05/13 01:18:48;;;;;;;4.93;2.35;;;;;;;17.59;41.10;101756.63;5066726;28;20048;-64
2022/05/13 01:21:21;;;;;;;7.65;2.20;;;;;;;17.58;41.04;101758.50;5082170;28;20041;-64
2022/05/13 01:23:51;;;;;;;7.45;1.88;;;;;;;17.56;41.11;101751.66;5077414;28;20204;-63
2022/05/13 01:26:22;;;;;;;6.47;1.67;;;;;;;17.55;41.08;101750.84;5081345;28;20115;-64
2022/05/13 01:28:52;;;;;;;4.50;1.45;;;;;;;17.50;41.11;101744.50;5079880;28;20398;-64
2022/05/13 01:31:26;;;;;;;6.03;1.52;;;;;;;17.52;41.05;101750.50;5079654;28;20072;-64
2022/05/13 01:33:54;;;;;;;4.45;1.35;;;;;;;17.50;41.07;101747.22;5082131;28;20075;-64
2022/05/13 01:36:22;;;;;;;6.57;1.33;;;;;;;17.47;41.09;101751.25;5078112;28;20076;-63
2022/05/13 01:38:52;;;;;;;4.07;1.55;;;;;;;17.46;41.02;101760.47;5073034;28;20051;-63
2022/05/13 01:41:20;;;;;;;5.07;1.70;;;;;;;17.44;41.14;101770.75;5080293;28;20100;-64
2022/05/13 01:43:49;;;;;;;4.10;1.48;;;;;;;17.43;41.10;101765.56;5081134;28;20072;-64
2022/05/13 01:46:18;;;;;;;5.32;1.67;;;;;;;17.40;41.03;101766.88;5071219;28;20076;-64
2022/05/13 01:48:47;;;;;;;4.88;1.50;;;;;;;17.37;41.16;101761.94;5068470;28;20067;-64
2022/05/13 01:51:15;;;;;;;8.80;1.58;;;;;;;17.37;41.24;101761.13;5074471;28;20071;-64
2022/05/13 01:53:43;;;;;;;4.65;1.27;;;;;;;17.29;41.30;101754.22;5081294;28;20071;-64
2022/05/13 01:56:13;;;;;;;5.47;1.60;;;;;;;17.32;41.33;101764.59;5080273;28;20072;-64
2022/05/13 01:58:40;;;;;;;5.82;1.67;;;;;;;17.32;41.25;101755.63;5069713;28;20055;-64
2022/05/13 02:01:09;;;;;;;4.05;1.70;;;;;;;17.31;41.25;101759.41;5069563;28;20100;-64
2022/05/13 02:03:46;;;;;;;5.70;1.90;;;;;;;17.28;41.21;101758.00;5076709;28;20041;-64
2022/05/13 02:06:18;;;;;;;5.75;1.30;;;;;;;17.28;41.34;101762.59;5072994;28;20048;-64
2022/05/13 02:08:47;;;;;;;6.53;1.60;;;;;;;17.25;41.35;101761.22;5068939;28;20107;-64
2022/05/13 02:11:16;;;;;;;5.68;1.77;;;;;;;17.24;41.39;101757.66;5078897;28;20056;-64
2022/05/13 02:13:44;;;;;;;9.27;2.20;;;;;;;17.23;41.53;101758.72;5061859;28;20068;-64
2022/05/13 02:16:13;;;;;;;8.45;1.50;;;;;;;17.22;41.57;101758.97;5072209;28;20080;-64
2022/05/13 02:18:42;;;;;;;4.93;1.55;;;;;;;17.18;41.50;101768.69;5075402;28;20071;-64
2022/05/13 02:21:11;;;;;;;5.25;1.77;;;;;;;17.19;41.47;101767.63;5070657;28;20049;-64
2022/05/13 02:23:39;;;;;;;7.03;1.73;;;;;;;17.17;41.47;101765.13;5081335;28;20059;-64
2022/05/13 02:26:09;;;;;;;4.53;1.67;;;;;;;17.13;41.65;101755.81;5069380;28;20078;-64
2022/05/13 02:28:39;;;;;;;8.93;2.13;;;;;;;17.10;41.72;101747.34;5080191;28;20088;-64
2022/05/13 02:31:08;;;;;;;7.60;1.60;;;;;;;17.13;41.75;101752.28;5078039;28;20592;-64
2022/05/13 02:33:37;;;;;;;5.88;1.20;;;;;;;17.12;41.84;101761.50;5078821;28;20040;-64
2022/05/13 02:36:06;;;;;;;6.38;1.88;;;;;;;17.05;42.09;101753.50;5078765;28;20076;-64
2022/05/13 02:38:35;;;;;;;8.30;2.10;;;;;;;17.07;41.99;101751.38;5074004;28;20099;-64
2022/05/13 02:41:12;;;;;;;5.72;2.08;;;;;;;17.06;41.94;101757.88;5076705;28;20044;-64
2022/05/13 02:43:44;;;;;;;6.70;2.20;;;;;;;17.05;42.13;101763.53;5080879;28;20044;-64
2022/05/13 02:46:14;;;;;;;4.35;1.30;;;;;;;17.03;42.50;101755.63;5073425;28;20250;-64
2022/05/13 02:48:42;;;;;;;6.47;1.70;;;;;;;17.02;42.52;101756.69;5073423;28;20044;-64
2022/05/13 02:51:09;;;;;;;9.43;1.92;;;;;;;17.01;42.46;101754.22;5076687;28;20060;-64
2022/05/13 02:53:37;;;;;;;7.65;1.63;;;;;;;17.00;42.52;101755.28;5075022;28;20512;-64
2022/05/13 02:56:06;;;;;;;8.60;2.30;;;;;;;16.89;42.44;101738.81;5070917;28;20140;-63
2022/05/13 02:58:34;;;;;;;8.02;2.03;;;;;;;16.98;42.54;101760.16;5077063;28;20098;-64
2022/05/13 03:01:03;;;;;;;9.27;2.13;;;;;;;16.96;42.63;101754.94;5077489;28;20037;-64
2022/05/13 03:03:34;;;;;;;5.72;1.75;;;;;;;16.96;42.66;101754.13;5065362;28;20044;-64
2022/05/13 03:06:01;;;;;;;7.28;2.17;;;;;;;16.94;42.55;101754.38;5069413;28;20079;-64
2022/05/13 03:08:29;;;;;;;3.35;1.20;;;;;;;16.93;42.66;101747.28;5077537;28;20045;-64
2022/05/13 03:10:57;;;;;;;7.43;1.92;;;;;;;16.91;42.57;101744.81;5070368;28;20075;-64
2022/05/13 03:13:25;;;;;;;7.72;1.73;;;;;;;16.88;42.80;101747.19;5074818;28;20053;-64
2022/05/13 03:15:53;;;;;;;6.07;1.52;;;;;;;16.88;42.68;101752.63;5060888;28;20129;-65
2022/05/13 03:18:22;;;;;;;3.65;1.40;;;;;;;16.88;42.78;101749.91;5078916;28;20108;-65
2022/05/13 03:20:50;;;;;;;7.65;2.20;;;;;;;16.86;42.95;101750.16;5077910;28;20049;-64
2022/05/13 03:23:17;;;;;;;9.20;2.08;;;;;;;16.83;43.15;101750.63;5079752;28;20073;-65
2022/05/13 03:25:45;;;;;;;5.70;1.85;;;;;;;16.81;43.12;101751.94;5082806;28;20079;-64
2022/05/13 03:28:13;;;;;;;5.28;2.08;;;;;;;16.79;43.41;101752.19;5077933;28;20136;-64
2022/05/13 03:30:41;;;;;;;7.25;2.03;;;;;;;16.79;43.34;101748.63;5084327;28;20056;-64
2022/05/13 03:33:09;;;;;;;9.48;2.20;;;;;;;16.76;43.22;101744.50;5080266;28;20048;-63
2022/05/13 03:35:39;;;;;;;6.53;2.05;;;;;;;16.76;43.55;101743.69;5079599;28;20076;-64
2022/05/13 03:38:07;;;;;;;6.13;2.08;;;;;;;16.75;43.44;101744.75;5070291;28;20886;-64
2022/05/13 03:40:36;;;;;;;6.47;1.55;;;;;;;16.74;43.38;101743.94;5079367;28;20079;-64
2022/05/13 03:43:04;;;;;;;6.72;2.13;;;;;;;16.73;43.52;101738.75;5083632;28;20072;-64
2022/05/13 03:45:35;;;;;;;10.52;2.50;;;;;;;16.68;43.78;101730.50;5080362;28;20087;-64
2022/05/13 03:48:05;;;;;;;11.35;2.17;;;;;;;16.71;43.64;101747.13;5082849;28;20052;-64
2022/05/13 03:50:35;;;;;;;9.43;3.25;;;;;;;16.69;43.71;101746.53;5076021;28;20048;-64
2022/05/13 03:53:04;;;;;;;8.30;2.05;;;;;;;16.66;43.77;101738.06;5072476;28;20072;-65
2022/05/13 03:55:33;;;;;;;9.63;2.10;;;;;;;16.68;43.89;101757.63;5078075;28;20037;-64
2022/05/13 03:58:01;;;;;;;5.65;2.30;;;;;;;16.69;43.89;101745.72;5084126;28;20048;-64
2022/05/13 04:00:29;;;;;;;6.65;2.38;;;;;;;16.66;43.86;101744.31;5082299;28;20072;-65
2022/05/13 04:02:57;;;;;;;7.72;2.20;;;;;;;16.66;43.95;101749.75;5075065;28;20044;-63
2022/05/13 04:10:57;;;;;;;6.93;2.20;;;;;;;16.60;44.12;101746.06;5078450;28;20037;-63
2022/05/13 04:16:10;;;;;;;9.00;2.60;;;;;;;16.61;44.04;101746.88;5080909;28;20532;-64
2022/05/13 04:18:41;;;;;;;6.57;2.45;;;;;;;16.59;44.11;101752.56;5082863;28;20044;-63
2022/05/13 04:21:12;;;;;;;10.52;2.42;;;;;;;16.58;44.20;101750.09;5075494;28;20101;-64
2022/05/13 04:23:44;;;;;;;7.78;2.10;;;;;;;16.57;44.43;101751.97;5068447;28;20435;-64
2022/05/13 04:26:13;;;;;;;7.70;2.20;;;;;;;16.53;44.32;101748.09;5067140;28;20052;-63
2022/05/13 04:28:42;;;;;;;10.23;2.38;;;;;;;16.55;44.45;101759.53;5070076;28;20065;-63
2022/05/13 04:31:10;;;;;;;7.18;2.47;;;;;;;16.52;44.36;101751.88;5077972;28;20055;-64
2022/05/13 04:33:39;;;;;;;6.03;2.08;;;;;;;16.44;44.51;101741.38;5082574;28;20079;-64
2022/05/13 04:36:07;;;;;;;8.23;1.83;;;;;;;16.52;44.60;101749.16;5081864;28;20057;-64
2022/05/13 04:38:36;;;;;;;6.75;2.67;;;;;;;16.40;44.61;101736.66;5074093;28;20072;-64
2022/05/13 04:43:51;;;;;;;7.80;2.08;;;;;;;16.50;44.54;101761.31;5080485;28;20076;-63
2022/05/13 04:46:19;;;;;;;5.47;1.92;;;;;;;16.47;45.07;101761.78;5078866;28;20082;-64
2022/05/13 04:48:48;;;;;;;8.73;2.30;;;;;;;16.46;44.87;101774.53;5075797;28;20051;-64
2022/05/13 04:51:18;;;;;;;13.38;2.63;;;;;;;16.46;44.82;101776.41;5081209;28;20044;-65
2022/05/13 04:53:49;;;;;;;5.15;1.85;;;;;;;16.43;45.26;101782.31;5073309;28;20071;-64
2022/05/13 04:56:19;;;;;;;9.55;2.63;;;;;;;16.33;45.26;101776.66;5080075;28;20116;-63
2022/05/13 04:58:48;;;;;;;7.35;2.35;;;;;;;16.39;45.29;101779.25;5071632;28;20048;-64
2022/05/13 05:01:17;;;;;;;6.45;2.22;;;;;;;16.39;45.29;101792.00;5076187;28;20533;-64
2022/05/13 05:03:46;;;;;;;8.07;2.38;;;;;;;16.33;45.09;101782.91;5067508;28;20045;-64
2022/05/13 05:06:16;;;;;;;8.48;2.50;;;;;;;16.31;45.12;101785.03;5069658;28;20069;-64
2022/05/13 05:08:44;;;;;;;15.15;3.08;;;;;;;16.36;45.04;101792.47;5075815;28;20171;-64
2022/05/13 05:11:13;;;;;;;6.38;2.25;;;;;;;16.36;45.21;101789.75;5072094;28;20087;-63
2022/05/13 05:13:45;;;;;;;12.48;2.60;;;;;;;16.35;45.19;101802.50;5071400;28;20056;-64
2022/05/13 05:16:15;;;;;;;8.90;2.47;;;;;;;16.34;45.56;101795.41;5073084;28;20047;-64
2022/05/13 05:18:43;;;;;;;6.75;2.60;;;;;;;16.33;45.46;101801.91;5079019;28;20049;-64
2022/05/13 05:21:12;;;;;;;8.05;2.50;;;;;;;16.34;45.24;101794.59;5076352;28;20052;-64
2022/05/13 05:23:43;;;;;;;8.90;2.40;;;;;;;16.34;45.36;101797.31;5042330;28;1117608;-64
2022/05/13 05:26:12;;;;;;;10.73;2.60;;;;;;;16.34;45.30;101808.16;5074263;28;20110;-64
2022/05/13 05:28:40;;;;;;;7.85;2.40;;;;;;;16.32;45.40;101802.97;5079392;28;20049;-65
2022/05/13 05:31:11;;;;;;;9.00;2.38;;;;;;;16.32;45.55;101815.72;5068607;28;20054;-65
2022/05/13 05:33:40;;;;;;;9.40;2.60;;;;;;;16.32;45.36;101815.72;5081444;28;20071;-64
2022/05/13 05:36:08;;;;;;;8.02;3.50;;;;;;;16.33;45.54;101822.78;5079819;28;20044;-65
2022/05/13 05:38:36;;;;;;;8.32;2.20;;;;;;;16.32;45.61;101821.13;5071492;28;20106;-65
2022/05/13 05:41:04;;;;;;;8.32;2.95;;;;;;;16.32;45.44;101821.13;5069489;28;20055;-64
2022/05/13 05:43:34;;;;;;;8.90;2.30;;;;;;;16.32;46.04;101821.13;5082478;28;20078;-62
2022/05/13 05:46:01;;;;;;;16.00;3.78;;;;;;;16.30;46.12;101832.22;5081766;28;20072;-64
2022/05/13 05:48:31;;;;;;;11.45;2.70;;;;;;;16.31;45.81;101833.03;5080096;28;20381;-64
2022/05/13 05:50:59;;;;;;;7.05;2.50;;;;;;;16.28;46.28;101839.75;5077342;28;20083;-65
2022/05/13 05:59:03;;;;;;;9.75;3.05;;;;;;;16.17;46.20;101841.41;5073819;28;20040;-64
2022/05/13 06:01:31;;;;;;;5.90;1.98;;;;;;;16.28;46.25;101856.88;4714518;28;10000634;-65
2022/05/13 06:04:01;;;;;;;7.72;3.00;;;;;;;16.26;46.13;101856.28;5075895;28;20056;-64
2022/05/13 06:06:28;;;;;;;8.30;2.08;;;;;;;16.28;46.01;101872.31;5074150;28;20140;-62
2022/05/13 06:08:58;;;;;;;9.50;2.58;;;;;;;16.28;46.34;101875.03;5069072;28;20081;-67
2022/05/13 06:11:26;;;;;;;13.98;2.80;;;;;;;16.18;46.75;101850.38;5072891;28;20332;-65
2022/05/13 06:13:54;;;;;;;9.77;2.30;;;;;;;16.26;46.76;101872.56;5072273;28;20059;-62
2022/05/13 06:16:23;;;;;;;7.88;3.05;;;;;;;16.25;47.08;101876.31;5063149;28;20599;-64
2022/05/13 06:18:52;;;;;;;7.45;2.60;;;;;;;16.23;47.08;101859.47;4712988;28;10000037;-64
2022/05/13 06:21:21;;;;;;;7.80;2.58;;;;;;;16.22;46.83;101863.22;5066526;28;20072;-63
2022/05/13 06:23:49;;;;;;;8.02;2.40;;;;;;;16.27;46.91;101876.09;5079036;28;20079;-63
2022/05/13 06:26:17;;;;;;;9.13;3.47;;;;;;;16.27;47.18;101871.50;5072572;28;20051;-64
2022/05/13 06:28:45;;;;;;;10.90;2.83;;;;;;;16.30;47.20;101877.50;5068894;28;20049;-62
2022/05/13 06:31:12;;;;;;;8.27;2.85;;;;;;;16.31;47.29;101881.88;5072440;28;20083;-64
2022/05/13 06:33:41;;;;;;;9.35;2.63;;;;;;;16.31;46.98;101880.00;5082363;28;20577;-63
2022/05/13 06:36:09;;;;;;;9.00;2.80;;;;;;;16.33;47.30;101882.47;5062794;28;20505;-63
2022/05/13 06:38:38;;;;;;;8.63;2.72;;;;;;;16.33;47.18;101882.47;5071100;28;20044;-64
2022/05/13 06:41:06;;;;;;;5.78;2.20;;;;;;;16.34;47.35;101894.97;5066807;28;20118;-63
2022/05/13 06:43:34;;;;;;;13.43;2.78;;;;;;;16.23;47.60;101870.31;5078762;28;20068;-63
2022/05/13 06:46:02;;;;;;;9.90;3.08;;;;;;;16.33;47.86;101885.19;5077712;28;20041;-65
2022/05/13 06:48:30;;;;;;;8.50;2.60;;;;;;;16.33;47.55;101882.47;5072707;28;20056;-65
2022/05/13 06:50:58;;;;;;;8.63;2.35;;;;;;;16.32;47.79;101892.50;5087278;28;20051;-64
2022/05/13 06:53:26;;;;;;;10.70;2.83;;;;;;;16.33;48.10;101894.16;5083284;28;20055;-65
2022/05/13 06:55:55;;;;;;;8.63;2.72;;;;;;;16.36;47.73;101892.84;5077547;28;20076;-65
2022/05/13 06:58:22;;;;;;;8.73;2.30;;;;;;;16.34;48.04;101893.09;5066261;28;20128;-65
2022/05/13 07:00:50;;;;;;;12.48;2.67;;;;;;;16.35;48.10;101899.34;5078873;28;20055;-65
2022/05/13 07:03:20;;;;;;;7.93;2.78;;;;;;;16.36;47.64;101898.28;5081011;28;20103;-65
2022/05/13 07:05:49;;;;;;;9.68;2.42;;;;;;;16.36;48.09;101895.56;5073878;28;20099;-65
2022/05/13 07:08:16;;;;;;;13.32;2.50;;;;;;;16.35;47.89;101899.34;5072485;28;20044;-65
2022/05/13 07:10:45;;;;;;;13.25;2.88;;;;;;;16.37;48.01;101902.63;5077417;28;20048;-65
2022/05/13 07:13:16;;;;;;;8.93;2.25;;;;;;;16.38;48.00;101909.72;5079429;28;20217;-64
2022/05/13 07:15:45;;;;;;;9.48;2.70;;;;;;;16.37;48.58;101906.19;5068750;28;20041;-64
2022/05/13 07:18:13;;;;;;;9.45;2.90;;;;;;;16.39;48.87;101900.53;5082787;28;20036;-64
2022/05/13 07:20:41;;;;;;;8.88;3.05;;;;;;;16.38;48.67;101907.00;5086117;28;20048;-63
2022/05/13 07:23:09;;;;;;;10.10;3.03;;;;;;;16.40;49.06;101911.13;5075301;28;20037;-63
2022/05/13 07:25:36;;;;;;;9.63;2.53;;;;;;;16.49;49.05;101906.19;5076644;28;20051;-63
2022/05/13 07:28:05;;;;;;;12.45;3.08;;;;;;;16.51;49.02;101904.91;5067033;28;20052;-60
2022/05/13 07:30:34;;;;;;;11.98;3.55;;;;;;;16.55;48.43;101902.53;4721177;28;10000662;-62
2022/05/13 07:33:02;;;;;;;10.38;2.70;;;;;;;16.62;48.56;101905.13;5063953;28;20174;-63
2022/05/13 07:35:30;;;;;;;11.35;2.97;;;;;;;16.65;48.43;101912.84;5064482;28;20309;-63
2022/05/13 07:37:57;;;;;;;10.05;3.05;;;;;;;16.70;48.38;101904.81;5061337;28;20278;-62
2022/05/13 07:43:11;;;;;;;12.35;2.92;;;;;;;16.68;48.60;101907.75;5069405;28;21000;-63
2022/05/13 07:45:40;;;;;;;8.30;2.72;;;;;;;16.65;48.25;101902.81;5064946;28;20044;-64
2022/05/13 07:48:08;;;;;;;11.15;2.90;;;;;;;16.70;48.52;101910.25;5062057;28;20072;-66
2022/05/13 07:50:36;;;;;;;15.05;2.88;;;;;;;16.68;49.42;101915.91;4720863;28;10000471;-71
2022/05/13 07:53:05;;;;;;;10.15;2.90;;;;;;;16.66;49.51;101907.16;5063963;28;20079;-65
2022/05/13 07:55:32;;;;;;;5.97;2.75;;;;;;;16.68;49.76;101920.50;5057793;28;20541;-65
2022/05/13 07:58:01;;;;;;;12.07;2.83;;;;;;;16.69;49.50;101931.13;5071485;28;20126;-65
2022/05/13 08:00:29;;;;;;;12.82;3.35;;;;;;;16.71;49.37;101922.75;5074446;28;20091;-71
2022/05/13 08:03:01;;;;;;;16.77;2.97;;;;;;;16.71;49.26;101930.91;5065869;28;20071;-63
2022/05/13 08:05:31;;;;;;;9.85;3.13;;;;;;;16.76;49.19;101933.72;5078005;28;20052;-62
2022/05/13 08:08:02;;;;;;;12.52;2.80;;;;;;;16.79;49.15;101933.25;5077273;28;20114;-62
2022/05/13 08:10:31;;;;;;;10.88;2.72;;;;;;;16.80;48.89;101932.19;5072159;28;20084;-64
2022/05/13 08:12:58;;;;;;;10.32;3.17;;;;;;;16.83;48.91;101926.28;5068348;28;20072;-62
2022/05/13 08:15:27;;;;;;;13.77;3.47;;;;;;;16.86;48.37;101939.38;5070516;28;20467;-62
2022/05/13 08:17:55;;;;;;;12.18;3.13;;;;;;;16.81;48.61;101929.25;5074762;28;20045;-62
2022/05/13 08:20:25;;;;;;;16.17;3.88;;;;;;;16.86;48.74;101939.38;5073309;28;20079;-63
2022/05/13 08:22:53;;;;;;;9.82;3.58;;;;;;;16.85;48.89;101949.41;5073473;28;20063;-63
2022/05/13 08:25:21;;;;;;;6.80;2.42;;;;;;;16.87;48.73;101941.03;5075230;28;20115;-63
2022/05/13 08:27:49;;;;;;;8.32;2.50;;;;;;;16.87;48.72;101941.88;5069168;28;20057;-62
2022/05/13 08:30:18;;;;;;;9.10;2.55;;;;;;;16.87;48.75;101931.00;5068626;28;20098;-62
2022/05/13 08:32:46;;;;;;;10.23;3.20;;;;;;;16.87;48.68;101951.91;5074602;28;20056;-63
2022/05/13 08:35:15;;;;;;;7.60;3.15;;;;;;;16.88;48.65;101942.69;5080611;28;20048;-62
2022/05/13 08:37:49;;;;;;;12.55;3.33;;;;;;;16.87;48.72;101944.59;5071773;28;20045;-61
2022/05/13 08:40:26;;;;;;;13.23;4.43;;;;;;;16.88;48.97;101942.69;5067392;28;20057;-60
2022/05/13 08:42:54;;;;;;;13.88;4.15;;;;;;;16.87;48.67;101941.03;5073602;28;20068;-64
2022/05/13 08:45:23;;;;;;;8.95;3.67;;;;;;;16.88;48.64;101946.25;5071847;28;20066;-64
2022/05/13 08:47:56;;;;;;;9.13;3.20;;;;;;;16.91;48.79;101950.38;5071092;28;20321;-64
2022/05/13 08:50:30;;;;;;;8.30;3.17;;;;;;;16.92;48.71;101946.59;5067797;28;20107;-64
2022/05/13 08:53:16;;;;;;;10.55;3.85;;;;;;;16.92;48.71;101941.97;5066937;28;20048;-64
2022/05/13 08:55:47;;;;;;;13.95;4.38;;;;;;;16.94;48.66;101943.63;5070734;28;20053;-64
2022/05/13 08:58:19;;;;;;;7.00;3.78;;;;;;;16.95;48.84;101945.28;5063068;28;20056;-65
2022/05/13 09:00:50;;;;;;;14.40;3.90;;;;;;;16.97;48.78;101941.28;5065207;28;20190;-65
2022/05/13 09:03:37;;;;;;;8.93;3.53;;;;;;;16.98;48.59;101936.66;5068723;28;20469;-64
2022/05/13 09:06:08;;;;;;;13.13;4.60;;;;;;;17.00;48.67;101946.22;5070351;28;20105;-64
2022/05/13 09:08:45;;;;;;;9.07;3.67;;;;;;;17.02;48.72;101948.69;5062816;28;20522;-63
2022/05/13 09:11:17;;;;;;;5.57;3.03;;;;;;;17.03;48.67;101943.03;5073719;28;20094;-64
2022/05/13 09:14:04;;;;;;;10.00;3.80;;;;;;;17.05;48.53;101943.63;5072694;28;20067;-65
2022/05/13 09:16:45;;;;;;;7.82;3.33;;;;;;;17.07;48.61;101940.66;5077206;28;20070;-65
2022/05/13 09:19:18;;;;;;;8.27;3.08;;;;;;;17.07;48.26;101940.66;5073853;28;20048;-66
2022/05/13 09:21:45;;;;;;;9.00;3.45;;;;;;;17.10;48.54;101956.50;5074988;28;20505;-66
2022/05/13 09:24:15;;;;;;;8.80;3.80;;;;;;;17.12;48.35;101946.22;5078150;28;20072;-65
2022/05/13 09:26:43;;;;;;;9.55;3.05;;;;;;;17.13;48.25;101943.25;5063059;28;20049;-65
2022/05/13 09:29:14;;;;;;;5.90;3.28;;;;;;;17.17;48.22;101957.19;5076374;28;20067;-66
2022/05/13 09:31:44;;;;;;;9.10;3.45;;;;;;;17.15;48.05;101946.56;5080602;28;20043;-65
2022/05/13 09:34:31;;;;;;;10.50;3.05;;;;;;;17.20;48.08;101945.84;5071050;28;20040;-65
2022/05/13 09:37:08;;;;;;;10.75;4.05;;;;;;;17.20;47.92;101943.13;5067953;28;20103;-65
2022/05/13 09:39:39;;;;;;;12.38;3.50;;;;;;;17.22;47.86;101952.69;5076971;28;20076;-65
2022/05/13 09:42:24;;;;;;;8.68;3.00;;;;;;;17.23;47.77;101946.19;5077953;28;20120;-69
2022/05/13 09:44:53;;;;;;;10.45;3.42;;;;;;;17.22;47.78;101958.13;5076901;28;20104;-64
2022/05/13 09:47:28;;;;;;;10.25;3.53;;;;;;;17.19;47.58;101946.91;5079412;28;20072;-64
2022/05/13 09:50:23;;;;;;;13.25;3.47;;;;;;;17.31;47.77;101964.03;5067782;28;22514;-65
2022/05/13 09:52:52;;;;;;;5.70;2.50;;;;;;;17.30;47.38;101962.38;5073462;28;20105;-64
2022/05/13 09:55:32;;;;;;;7.93;3.00;;;;;;;17.24;47.28;101949.72;5072992;28;20581;-64
2022/05/13 09:58:03;;;;;;;9.00;3.13;;;;;;;17.29;47.39;101952.56;5072884;28;20068;-64
2022/05/13 10:00:33;;;;;;;6.65;2.92;;;;;;;17.25;47.90;101932.38;5061757;28;20053;-64
2022/05/13 10:03:18;;;;;;;6.30;3.05;;;;;;;17.39;47.50;101954.63;5077251;28;20048;-64
2022/05/13 10:05:53;;;;;;;8.68;3.08;;;;;;;17.40;47.57;101957.13;5067224;28;20098;-64
2022/05/13 10:08:27;;;;;;;9.10;2.90;;;;;;;17.39;46.75;101960.06;5062098;28;20076;-65
2022/05/13 10:14:00;;;;;;;6.78;2.45;;;;;;;17.43;47.41;101972.13;5074853;28;20122;-65
2022/05/13 10:16:34;;;;;;;7.53;2.70;;;;;;;17.43;47.34;101980.25;5071672;28;20078;-65
2022/05/13 10:19:09;;;;;;;8.18;2.83;;;;;;;17.42;46.88;101976.72;5074352;28;20485;-64
2022/05/13 10:21:43;;;;;;;5.95;2.50;;;;;;;17.39;46.38;101962.78;5074799;28;20044;-64
2022/05/13 10:24:27;;;;;;;8.98;2.50;;;;;;;17.44;46.44;101966.44;5066285;28;20508;-64
2022/05/13 10:26:58;;;;;;;5.55;2.50;;;;;;;17.45;46.91;101972.69;5075081;28;20048;-64
2022/05/13 10:29:30;;;;;;;7.45;2.47;;;;;;;17.47;46.61;101965.13;5066708;28;20084;-64
2022/05/13 10:32:01;;;;;;;9.35;2.75;;;;;;;17.50;46.84;101967.38;5066873;28;20084;-64
2022/05/13 10:34:32;;;;;;;9.65;3.38;;;;;;;17.54;46.77;101963.94;5076546;28;20040;-65
2022/05/13 10:37:04;;;;;;;7.47;2.42;;;;;;;17.58;47.10;101959.66;5064714;28;20048;-64
2022/05/13 10:39:41;;;;;;;6.88;2.53;;;;;;;17.52;47.24;101952.47;5068917;28;20532;-63
2022/05/13 10:42:17;;;;;;;4.90;2.17;;;;;;;17.66;47.62;101968.53;5079579;28;20112;-63
2022/05/13 10:44:53;;;;;;;6.80;2.20;;;;;;;17.72;47.40;101967.56;5081731;28;20051;-63
2022/05/13 10:47:25;;;;;;;5.40;2.58;;;;;;;17.75;47.36;101967.09;5071765;28;20052;-63
2022/05/13 10:49:53;;;;;;;6.50;2.30;;;;;;;17.73;46.87;101956.44;5077264;28;20096;-63
2022/05/13 10:52:37;;;;;;;7.68;2.28;;;;;;;17.78;47.04;101961.16;5076178;28;20068;-64
2022/05/13 10:55:10;;;;;;;7.28;2.17;;;;;;;17.83;47.01;101962.09;5075146;28;20111;-63
2022/05/13 10:57:49;;;;;;;6.70;2.15;;;;;;;17.83;47.01;101958.53;5063964;28;20045;-64
2022/05/13 11:00:20;;;;;;;8.50;2.17;;;;;;;17.98;46.66;101960.72;5079180;28;20199;-63
2022/05/13 11:03:26;;;;;;;5.07;2.40;;;;;;;17.98;46.80;101953.38;5064601;28;20040;-63
2022/05/13 11:06:05;;;;;;;11.23;2.70;;;;;;;18.07;46.49;101961.97;5070851;28;20124;-63
2022/05/13 11:08:48;;;;;;;5.68;2.33;;;;;;;18.12;46.37;101962.91;5076349;28;20072;-63
2022/05/13 11:11:26;;;;;;;6.07;2.38;;;;;;;18.19;46.58;101966.28;5073615;28;20103;-63
2022/05/13 11:14:07;;;;;;;8.93;2.42;;;;;;;18.20;46.60;101956.22;4723264;28;10000290;-63
2022/05/13 11:16:48;;;;;;;7.85;2.25;;;;;;;18.23;46.43;101968.53;5076936;28;20080;-63
2022/05/13 11:19:27;;;;;;;9.40;2.50;;;;;;;18.17;46.03;101963.00;5077060;28;20063;-64
2022/05/13 11:22:02;;;;;;;7.07;2.72;;;;;;;18.16;46.30;101955.91;5065170;28;20088;-63
2022/05/13 11:27:46;;;;;;;6.13;3.05;;;;;;;18.29;45.89;101957.47;5069032;28;20078;-64
2022/05/13 11:30:19;;;;;;;7.45;2.33;;;;;;;18.26;45.52;101938.09;5064590;28;20123;-63
2022/05/13 11:32:53;;;;;;;8.05;2.63;;;;;;;18.33;45.51;101964.06;5069738;28;20052;-63
2022/05/13 11:35:49;;;;;;;6.57;2.38;;;;;;;18.31;45.25;101960.78;5064897;28;20079;-62
2022/05/13 11:38:29;;;;;;;5.20;2.63;;;;;;;18.28;45.08;101968.59;5058448;28;20068;-63
2022/05/13 11:41:03;;;;;;;7.80;2.72;;;;;;;18.38;44.76;101969.59;5076103;28;20048;-64
2022/05/13 11:43:58;;;;;;;6.82;2.20;;;;;;;18.39;44.84;101962.28;5068739;28;20064;-66
2022/05/13 11:46:51;;;;;;;6.97;2.42;;;;;;;18.51;44.97;101963.00;5071166;28;20098;-62
2022/05/13 11:49:25;;;;;;;9.38;2.53;;;;;;;18.51;44.72;101968.47;5067560;28;20052;-63
2022/05/13 11:51:54;;;;;;;4.03;2.05;;;;;;;18.50;44.63;101972.25;5062910;28;20074;-63
2022/05/13 11:54:28;;;;;;;7.47;2.10;;;;;;;18.50;45.18;101967.63;5079683;28;20109;-63
2022/05/13 11:57:21;;;;;;;8.32;2.80;;;;;;;18.57;44.84;101970.19;5075950;28;20048;-62
2022/05/13 11:59:51;;;;;;;7.18;2.63;;;;;;;18.65;45.07;101960.81;5065411;28;20106;-63
2022/05/13 12:02:35;;;;;;;7.82;2.33;;;;;;;18.59;44.94;101964.50;5065929;28;20084;-62
2022/05/13 12:05:25;;;;;;;6.00;2.85;;;;;;;18.63;44.62;101968.41;5078474;28;20113;-63
2022/05/13 12:07:57;;;;;;;5.88;2.75;;;;;;;18.58;44.74;101966.41;5075668;28;20067;-64